LPP3001 CYYR-LEAM
Flight info
| Callsign | LPP3001 |
|---|---|
| Flight time | N/A |
| Altitude | 37000 |
| Route | ILIMA DCT LOMSI/M082F370 DCT 52N048W 51N040W 50N032W 48N025W 46N019W DCT MUDOS/N0468F390 DCT RIPEL DCT XAPIM DCT UREDI DCT CRISA DCT ARPEX M192 AGIDO |
| Aircraft | B762/H-SDFGIRWY/S |
Departure
| Time | N/A |
|---|---|
| Airport | Goose Bay Airport (CYYR) |
Arrival
| Time | 2026-04-21 04:10 |
|---|---|
| Airport | Almería Airport (LEAM) |
| Time | Latitude | Longitude | Altitude | Speed | Heading |
|---|---|---|---|---|---|
| 2026-04-20 23:37 | 51.72791 | -45.29992 | 37086 ft | 476 kts | 102° |
| 2026-04-20 23:37 | 51.71603 | -45.19509 | 37095 ft | 475 kts | 102° |
| 2026-04-20 23:38 | 51.70412 | -45.09088 | 37098 ft | 477 kts | 102° |
| 2026-04-20 23:38 | 51.69207 | -44.98633 | 37095 ft | 474 kts | 102° |
| 2026-04-20 23:39 | 51.67993 | -44.88186 | 37100 ft | 474 kts | 101° |
| 2026-04-20 23:39 | 51.66772 | -44.77765 | 37101 ft | 475 kts | 101° |
| 2026-04-20 23:40 | 51.65543 | -44.67358 | 37101 ft | 476 kts | 102° |
| 2026-04-20 23:40 | 51.64301 | -44.56925 | 37108 ft | 476 kts | 101° |
| 2026-04-20 23:41 | 51.63052 | -44.46508 | 37103 ft | 474 kts | 101° |
| 2026-04-20 23:41 | 51.61793 | -44.36100 | 37111 ft | 475 kts | 101° |
| 2026-04-20 23:42 | 51.60525 | -44.25697 | 37110 ft | 476 kts | 102° |
| 2026-04-20 23:42 | 51.59248 | -44.15305 | 37101 ft | 474 kts | 102° |
| 2026-04-20 23:43 | 51.57963 | -44.04927 | 37102 ft | 477 kts | 102° |
| 2026-04-20 23:43 | 51.56665 | -43.94517 | 37106 ft | 475 kts | 102° |
| 2026-04-20 23:44 | 51.55362 | -43.84151 | 37103 ft | 475 kts | 102° |
| 2026-04-20 23:44 | 51.54049 | -43.73792 | 37110 ft | 476 kts | 102° |
| 2026-04-20 23:45 | 51.52728 | -43.63431 | 37098 ft | 475 kts | 102° |
| 2026-04-20 23:45 | 51.51404 | -43.53137 | 37102 ft | 473 kts | 101° |
| 2026-04-20 23:46 | 51.50063 | -43.42775 | 37110 ft | 475 kts | 102° |
| 2026-04-20 23:46 | 51.48714 | -43.32439 | 37109 ft | 474 kts | 102° |
| 2026-04-20 23:47 | 51.47367 | -43.22189 | 37109 ft | 474 kts | 102° |
| 2026-04-20 23:47 | 51.45999 | -43.11863 | 37110 ft | 475 kts | 102° |
| 2026-04-20 23:48 | 51.44626 | -43.01560 | 37109 ft | 475 kts | 102° |
| 2026-04-20 23:48 | 51.43243 | -42.91262 | 37113 ft | 475 kts | 102° |
| 2026-04-20 23:49 | 51.41846 | -42.80945 | 37122 ft | 475 kts | 101° |
| 2026-04-20 23:49 | 51.40447 | -42.70658 | 37128 ft | 475 kts | 101° |
| 2026-04-20 23:50 | 51.39035 | -42.60367 | 37130 ft | 475 kts | 101° |
| 2026-04-20 23:50 | 51.37608 | -42.50035 | 37135 ft | 476 kts | 101° |
| 2026-04-20 23:51 | 51.36172 | -42.39711 | 37114 ft | 478 kts | 101° |
| 2026-04-20 23:51 | 51.34720 | -42.29344 | 37112 ft | 479 kts | 102° |
| 2026-04-20 23:52 | 51.33269 | -42.19054 | 37094 ft | 480 kts | 102° |
| 2026-04-20 23:52 | 51.31795 | -42.08677 | 37111 ft | 478 kts | 102° |
| 2026-04-20 23:53 | 51.30323 | -41.98386 | 37116 ft | 481 kts | 101° |
| 2026-04-20 23:53 | 51.28828 | -41.87994 | 37113 ft | 481 kts | 101° |
| 2026-04-20 23:54 | 51.27328 | -41.77651 | 37096 ft | 482 kts | 101° |
| 2026-04-20 23:54 | 51.25811 | -41.67254 | 37111 ft | 484 kts | 101° |
| 2026-04-20 23:55 | 51.24279 | -41.56821 | 37115 ft | 483 kts | 101° |
| 2026-04-20 23:55 | 51.22743 | -41.46431 | 37119 ft | 483 kts | 101° |
| 2026-04-20 23:56 | 51.21192 | -41.36016 | 37114 ft | 486 kts | 101° |
| 2026-04-20 23:56 | 51.19626 | -41.25563 | 37119 ft | 485 kts | 101° |
| 2026-04-20 23:57 | 51.18052 | -41.15127 | 37115 ft | 487 kts | 101° |
| 2026-04-20 23:57 | 51.16462 | -41.04654 | 37111 ft | 488 kts | 101° |
| 2026-04-20 23:58 | 51.14872 | -40.94260 | 37112 ft | 487 kts | 101° |
| 2026-04-20 23:58 | 51.13267 | -40.83818 | 37114 ft | 489 kts | 101° |
| 2026-04-20 23:59 | 51.11645 | -40.73339 | 37112 ft | 489 kts | 101° |
| 2026-04-20 23:59 | 51.10006 | -40.62825 | 37118 ft | 491 kts | 101° |
| 2026-04-21 00:00 | 51.08369 | -40.52383 | 37116 ft | 490 kts | 101° |
| 2026-04-21 00:00 | 51.06705 | -40.41843 | 37122 ft | 493 kts | 100° |
| 2026-04-21 00:01 | 51.05036 | -40.31334 | 37116 ft | 493 kts | 101° |
| 2026-04-21 00:01 | 51.03360 | -40.20857 | 37118 ft | 494 kts | 101° |
| 2026-04-21 00:02 | 51.01659 | -40.10283 | 37118 ft | 495 kts | 101° |
| 2026-04-21 00:02 | 50.99966 | -39.99759 | 37115 ft | 497 kts | 99° |
| 2026-04-21 00:03 | 50.98958 | -39.89052 | 37116 ft | 491 kts | 93° |
| 2026-04-21 00:03 | 50.98029 | -39.78288 | 37111 ft | 492 kts | 93° |
| 2026-04-21 00:04 | 50.97072 | -39.67599 | 37117 ft | 495 kts | 94° |
| 2026-04-21 00:04 | 50.96086 | -39.56836 | 37118 ft | 494 kts | 93° |
| 2026-04-21 00:05 | 50.95092 | -39.46108 | 37107 ft | 494 kts | 93° |
| 2026-04-21 00:05 | 50.94085 | -39.35351 | 37103 ft | 496 kts | 93° |
| 2026-04-21 00:06 | 50.93066 | -39.24618 | 37100 ft | 496 kts | 93° |
| 2026-04-21 00:06 | 50.92025 | -39.13743 | 37090 ft | 499 kts | 93° |
| 2026-04-21 00:07 | 50.90980 | -39.02937 | 37096 ft | 498 kts | 93° |
| 2026-04-21 00:07 | 50.89928 | -38.92175 | 37097 ft | 499 kts | 92° |
| 2026-04-21 00:08 | 50.88862 | -38.81367 | 37093 ft | 501 kts | 92° |
| 2026-04-21 00:08 | 50.87780 | -38.70512 | 37087 ft | 500 kts | 92° |
| 2026-04-21 00:09 | 50.86688 | -38.59657 | 37086 ft | 501 kts | 92° |
| 2026-04-21 00:09 | 50.85587 | -38.48822 | 37086 ft | 499 kts | 92° |
| 2026-04-21 00:10 | 50.84479 | -38.38013 | 37090 ft | 501 kts | 92° |
| 2026-04-21 00:10 | 50.83358 | -38.27192 | 37078 ft | 503 kts | 92° |
| 2026-04-21 00:11 | 50.82223 | -38.16326 | 37091 ft | 503 kts | 92° |
| 2026-04-21 00:11 | 50.81077 | -38.05462 | 37082 ft | 505 kts | 92° |
| 2026-04-21 00:12 | 50.79912 | -37.94527 | 37095 ft | 506 kts | 92° |
| 2026-04-21 00:12 | 50.78737 | -37.83602 | 37061 ft | 505 kts | 92° |
| 2026-04-21 00:13 | 50.77552 | -37.72665 | 37062 ft | 508 kts | 92° |
| 2026-04-21 00:13 | 50.76350 | -37.61683 | 37065 ft | 509 kts | 91° |
| 2026-04-21 00:14 | 50.75143 | -37.50769 | 37077 ft | 506 kts | 91° |
| 2026-04-21 00:14 | 50.73930 | -37.39866 | 37086 ft | 508 kts | 91° |
| 2026-04-21 00:15 | 50.72702 | -37.28963 | 37040 ft | 505 kts | 92° |
| 2026-04-21 00:15 | 50.71472 | -37.18104 | 37096 ft | 506 kts | 92° |
| 2026-04-21 00:16 | 50.70221 | -37.07162 | 37087 ft | 510 kts | 91° |
| 2026-04-21 00:16 | 50.68949 | -36.96143 | 37063 ft | 510 kts | 91° |
| 2026-04-21 00:17 | 50.67672 | -36.85177 | 37041 ft | 510 kts | 91° |
| 2026-04-21 00:17 | 50.66389 | -36.74263 | 37068 ft | 508 kts | 91° |
| 2026-04-21 00:18 | 50.65102 | -36.63354 | 37023 ft | 512 kts | 91° |
| 2026-04-21 00:18 | 50.63787 | -36.52374 | 37067 ft | 509 kts | 91° |
| 2026-04-21 00:19 | 50.62473 | -36.41461 | 37064 ft | 509 kts | 90° |
| 2026-04-21 00:19 | 50.61151 | -36.30558 | 37044 ft | 509 kts | 91° |
| 2026-04-21 00:20 | 50.59827 | -36.19750 | 37049 ft | 508 kts | 91° |
| 2026-04-21 00:20 | 50.58486 | -36.08891 | 37040 ft | 507 kts | 91° |
| 2026-04-21 00:21 | 50.57131 | -35.97982 | 37053 ft | 508 kts | 91° |
| 2026-04-21 00:21 | 50.55766 | -35.87105 | 37003 ft | 508 kts | 91° |
| 2026-04-21 00:22 | 50.54401 | -35.76321 | 37042 ft | 504 kts | 91° |
| 2026-04-21 00:22 | 50.53031 | -35.65552 | 37024 ft | 504 kts | 91° |
| 2026-04-21 00:23 | 50.51654 | -35.54844 | 37011 ft | 501 kts | 91° |
| 2026-04-21 00:23 | 50.50281 | -35.44239 | 37017 ft | 498 kts | 91° |
| 2026-04-21 00:24 | 50.48898 | -35.33608 | 36991 ft | 498 kts | 92° |
| 2026-04-21 00:24 | 50.47497 | -35.22943 | 37007 ft | 499 kts | 92° |
| 2026-04-21 00:25 | 50.46098 | -35.12388 | 37004 ft | 497 kts | 92° |
| 2026-04-21 00:25 | 50.44690 | -35.01812 | 37033 ft | 498 kts | 91° |
| 2026-04-21 00:26 | 50.43272 | -34.91267 | 37016 ft | 496 kts | 92° |
| 2026-04-21 00:26 | 50.41849 | -34.80755 | 37072 ft | 493 kts | 92° |
| 2026-04-21 00:26 | 50.41135 | -34.75496 | 36962 ft | 494 kts | 92° |
| 2026-04-21 00:27 | 50.40416 | -34.70233 | 37067 ft | 494 kts | 92° |
| 2026-04-21 00:27 | 50.39699 | -34.64994 | 36917 ft | 493 kts | 92° |
| 2026-04-21 00:27 | 50.38977 | -34.59758 | 37033 ft | 494 kts | 92° |
| 2026-04-21 00:28 | 50.37529 | -34.49287 | 37022 ft | 493 kts | 92° |
| 2026-04-21 00:28 | 50.36081 | -34.38881 | 36961 ft | 488 kts | 92° |
| 2026-04-21 00:29 | 50.34638 | -34.28578 | 37027 ft | 490 kts | 93° |
| 2026-04-21 00:29 | 50.33898 | -34.23327 | 36872 ft | 489 kts | 94° |
| 2026-04-21 00:29 | 50.33172 | -34.18207 | 37051 ft | 486 kts | 93° |
| 2026-04-21 00:30 | 50.31702 | -34.07864 | 36958 ft | 489 kts | 94° |
| 2026-04-21 00:30 | 50.30232 | -33.97596 | 37079 ft | 487 kts | 94° |
| 2026-04-21 00:31 | 50.28753 | -33.87326 | 36904 ft | 486 kts | 94° |
| 2026-04-21 00:31 | 50.27263 | -33.77055 | 36988 ft | 484 kts | 94° |
| 2026-04-21 00:32 | 50.25771 | -33.66839 | 36996 ft | 484 kts | 94° |
| 2026-04-21 00:32 | 50.24271 | -33.56634 | 37011 ft | 485 kts | 94° |
| 2026-04-21 00:33 | 50.22763 | -33.46444 | 36999 ft | 485 kts | 94° |
| 2026-04-21 00:33 | 50.21231 | -33.36169 | 36949 ft | 484 kts | 95° |
| 2026-04-21 00:34 | 50.19710 | -33.26019 | 36952 ft | 486 kts | 95° |
| 2026-04-21 00:34 | 50.18174 | -33.15831 | 37008 ft | 485 kts | 96° |
| 2026-04-21 00:35 | 50.16625 | -33.05636 | 36985 ft | 485 kts | 96° |
| 2026-04-21 00:35 | 50.15064 | -32.95420 | 36916 ft | 485 kts | 96° |
| 2026-04-21 00:36 | 50.13514 | -32.85350 | 37030 ft | 480 kts | 96° |
| 2026-04-21 00:36 | 50.12733 | -32.80291 | 36842 ft | 482 kts | 96° |
| 2026-04-21 00:36 | 50.11949 | -32.75232 | 36976 ft | 484 kts | 96° |
| 2026-04-21 00:37 | 50.10367 | -32.65076 | 37000 ft | 482 kts | 97° |
| 2026-04-21 00:37 | 50.08786 | -32.54993 | 36980 ft | 480 kts | 97° |
| 2026-04-21 00:38 | 50.07198 | -32.44921 | 36955 ft | 479 kts | 97° |
| 2026-04-21 00:38 | 50.05606 | -32.34886 | 36938 ft | 478 kts | 98° |
| 2026-04-21 00:39 | 50.04016 | -32.24929 | 36985 ft | 478 kts | 98° |
| 2026-04-21 00:39 | 50.02417 | -32.14973 | 36958 ft | 476 kts | 98° |
| 2026-04-21 00:40 | 50.00815 | -32.05055 | 36888 ft | 477 kts | 98° |
| 2026-04-21 00:40 | 49.98720 | -31.95252 | 36954 ft | 479 kts | 104° |
| 2026-04-21 00:41 | 49.96407 | -31.85572 | 36955 ft | 477 kts | 105° |
| 2026-04-21 00:41 | 49.94056 | -31.75953 | 37016 ft | 479 kts | 105° |
| 2026-04-21 00:41 | 49.92867 | -31.71138 | 36913 ft | 480 kts | 105° |
| 2026-04-21 00:42 | 49.91680 | -31.66344 | 36988 ft | 478 kts | 105° |
| 2026-04-21 00:42 | 49.89292 | -31.56747 | 36920 ft | 478 kts | 105° |
| 2026-04-21 00:43 | 49.86911 | -31.47236 | 36940 ft | 475 kts | 105° |
| 2026-04-21 00:43 | 49.84507 | -31.37665 | 36897 ft | 478 kts | 105° |
| 2026-04-21 00:44 | 49.82085 | -31.28071 | 36939 ft | 477 kts | 106° |
| 2026-04-21 00:44 | 49.79669 | -31.18546 | 36918 ft | 480 kts | 107° |
| 2026-04-21 00:45 | 49.76007 | -31.04183 | 36924 ft | 476 kts | 107° |
| 2026-04-21 00:45 | 49.73584 | -30.94731 | 36944 ft | 473 kts | 107° |
| 2026-04-21 00:46 | 49.71154 | -30.85280 | 36941 ft | 475 kts | 107° |
| 2026-04-21 00:46 | 49.68721 | -30.75870 | 36940 ft | 474 kts | 107° |
| 2026-04-21 00:47 | 49.66282 | -30.66462 | 36913 ft | 477 kts | 107° |
| 2026-04-21 00:47 | 49.63819 | -30.57012 | 36924 ft | 476 kts | 107° |
| 2026-04-21 00:48 | 49.61356 | -30.47597 | 36918 ft | 474 kts | 107° |
| 2026-04-21 00:48 | 49.58883 | -30.38184 | 36917 ft | 475 kts | 107° |
| 2026-04-21 00:49 | 49.56406 | -30.28793 | 36921 ft | 474 kts | 108° |
| 2026-04-21 00:49 | 49.53921 | -30.19405 | 36921 ft | 476 kts | 108° |
| 2026-04-21 00:50 | 49.51425 | -30.10022 | 36915 ft | 475 kts | 108° |
| 2026-04-21 00:50 | 49.48933 | -30.00683 | 36908 ft | 476 kts | 108° |
| 2026-04-21 00:51 | 49.46409 | -29.91272 | 36926 ft | 478 kts | 108° |
| 2026-04-21 00:51 | 49.43888 | -29.81908 | 36893 ft | 472 kts | 108° |
| 2026-04-21 00:52 | 49.41393 | -29.72673 | 36903 ft | 472 kts | 108° |
| 2026-04-21 00:52 | 49.38880 | -29.63409 | 36914 ft | 472 kts | 108° |
| 2026-04-21 00:53 | 49.36362 | -29.54168 | 36922 ft | 471 kts | 108° |
| 2026-04-21 00:53 | 49.33830 | -29.44908 | 36898 ft | 469 kts | 108° |
| 2026-04-21 00:54 | 49.31319 | -29.35763 | 36902 ft | 471 kts | 108° |
| 2026-04-21 00:54 | 49.28781 | -29.26555 | 36923 ft | 467 kts | 109° |
| 2026-04-21 00:55 | 49.26248 | -29.17397 | 36907 ft | 469 kts | 109° |
| 2026-04-21 00:55 | 49.23710 | -29.08262 | 36911 ft | 469 kts | 109° |
| 2026-04-21 00:56 | 49.21169 | -28.99150 | 36912 ft | 467 kts | 109° |
| 2026-04-21 00:56 | 49.18611 | -28.90010 | 36896 ft | 469 kts | 110° |
| 2026-04-21 00:57 | 49.16065 | -28.80950 | 36909 ft | 463 kts | 109° |
| 2026-04-21 00:57 | 49.13527 | -28.71953 | 36915 ft | 464 kts | 109° |
| 2026-04-21 00:58 | 49.10979 | -28.62950 | 36911 ft | 463 kts | 110° |
| 2026-04-21 00:58 | 49.08436 | -28.54004 | 36911 ft | 463 kts | 110° |
| 2026-04-21 00:59 | 49.05871 | -28.45010 | 36907 ft | 465 kts | 110° |
| 2026-04-21 00:59 | 49.03304 | -28.36049 | 36926 ft | 459 kts | 110° |
| 2026-04-21 01:00 | 49.00756 | -28.27180 | 36927 ft | 459 kts | 111° |
| 2026-04-21 01:00 | 48.98193 | -28.18295 | 36908 ft | 460 kts | 111° |
| 2026-04-21 01:01 | 48.95625 | -28.09427 | 36902 ft | 461 kts | 111° |
| 2026-04-21 01:01 | 48.93049 | -28.00562 | 36916 ft | 458 kts | 111° |
| 2026-04-21 01:02 | 48.90475 | -27.91736 | 36924 ft | 462 kts | 111° |
| 2026-04-21 01:02 | 48.87886 | -27.82891 | 36903 ft | 457 kts | 111° |
| 2026-04-21 01:03 | 48.85310 | -27.74120 | 36916 ft | 460 kts | 111° |
| 2026-04-21 01:03 | 48.82689 | -27.65233 | 36908 ft | 461 kts | 111° |
| 2026-04-21 01:04 | 48.80080 | -27.56418 | 36916 ft | 456 kts | 111° |
| 2026-04-21 01:04 | 48.77473 | -27.47641 | 36905 ft | 462 kts | 111° |
| 2026-04-21 01:05 | 48.74839 | -27.38800 | 36896 ft | 461 kts | 111° |
| 2026-04-21 01:05 | 48.72226 | -27.30066 | 36904 ft | 460 kts | 112° |
| 2026-04-21 01:06 | 48.69586 | -27.21271 | 36914 ft | 461 kts | 112° |
| 2026-04-21 01:06 | 48.66937 | -27.12483 | 36914 ft | 460 kts | 112° |
| 2026-04-21 01:07 | 48.64274 | -27.03674 | 36918 ft | 460 kts | 112° |
| 2026-04-21 01:07 | 48.61628 | -26.94955 | 36905 ft | 458 kts | 112° |
| 2026-04-21 01:08 | 48.58970 | -26.86227 | 36929 ft | 460 kts | 112° |
| 2026-04-21 01:08 | 48.56289 | -26.77453 | 36926 ft | 462 kts | 112° |
| 2026-04-21 01:09 | 48.53624 | -26.68765 | 36904 ft | 455 kts | 112° |
| 2026-04-21 01:09 | 48.50962 | -26.60112 | 36926 ft | 459 kts | 112° |
| 2026-04-21 01:10 | 48.48265 | -26.51380 | 36920 ft | 461 kts | 112° |
| 2026-04-21 01:10 | 48.45565 | -26.42667 | 36928 ft | 458 kts | 112° |
| 2026-04-21 01:11 | 48.42876 | -26.34023 | 36920 ft | 457 kts | 113° |
| 2026-04-21 01:11 | 48.40175 | -26.25367 | 36926 ft | 460 kts | 113° |
| 2026-04-21 01:12 | 48.37454 | -26.16678 | 36927 ft | 458 kts | 113° |
| 2026-04-21 01:12 | 48.34758 | -26.08098 | 36900 ft | 457 kts | 113° |
| 2026-04-21 01:13 | 48.32024 | -25.99427 | 36924 ft | 459 kts | 114° |
| 2026-04-21 01:13 | 48.29311 | -25.90855 | 36923 ft | 457 kts | 114° |
| 2026-04-21 01:14 | 48.26581 | -25.82257 | 36930 ft | 457 kts | 114° |
| 2026-04-21 01:14 | 48.23861 | -25.73720 | 36914 ft | 452 kts | 114° |
| 2026-04-21 01:15 | 48.21145 | -25.65221 | 36914 ft | 456 kts | 114° |
| 2026-04-21 01:15 | 48.18401 | -25.56667 | 36930 ft | 456 kts | 114° |
| 2026-04-21 01:16 | 48.15660 | -25.48151 | 36923 ft | 455 kts | 114° |
| 2026-04-21 01:16 | 48.12915 | -25.39648 | 36935 ft | 455 kts | 114° |
| 2026-04-21 01:17 | 48.10165 | -25.31161 | 36918 ft | 454 kts | 114° |
| 2026-04-21 01:17 | 48.07413 | -25.22695 | 36928 ft | 457 kts | 114° |
| 2026-04-21 01:18 | 48.04635 | -25.14177 | 36919 ft | 455 kts | 114° |
| 2026-04-21 01:18 | 48.01887 | -25.05780 | 36920 ft | 454 kts | 114° |
| 2026-04-21 01:19 | 47.99172 | -24.97283 | 36937 ft | 453 kts | 112° |
| 2026-04-21 01:19 | 47.96643 | -24.88708 | 36926 ft | 455 kts | 112° |
| 2026-04-21 01:20 | 47.94099 | -24.80149 | 36923 ft | 453 kts | 112° |
| 2026-04-21 01:20 | 47.91543 | -24.71580 | 36923 ft | 453 kts | 112° |
| 2026-04-21 01:21 | 47.88991 | -24.63059 | 36930 ft | 451 kts | 112° |
| 2026-04-21 01:21 | 47.86423 | -24.54513 | 36911 ft | 451 kts | 113° |
| 2026-04-21 01:22 | 47.83869 | -24.46047 | 36931 ft | 450 kts | 113° |
| 2026-04-21 01:22 | 47.81309 | -24.37587 | 36929 ft | 453 kts | 113° |
| 2026-04-21 01:23 | 47.78731 | -24.29098 | 36922 ft | 451 kts | 114° |
| 2026-04-21 01:23 | 47.76160 | -24.20655 | 36931 ft | 450 kts | 114° |
| 2026-04-21 01:24 | 47.73581 | -24.12220 | 36935 ft | 449 kts | 114° |
| 2026-04-21 01:24 | 47.70996 | -24.03794 | 36933 ft | 450 kts | 114° |
| 2026-04-21 01:25 | 47.68409 | -23.95389 | 36928 ft | 448 kts | 114° |
| 2026-04-21 01:25 | 47.65839 | -23.87069 | 36934 ft | 449 kts | 114° |
| 2026-04-21 01:26 | 47.63233 | -23.78659 | 36949 ft | 449 kts | 114° |
| 2026-04-21 01:26 | 47.60630 | -23.70285 | 36923 ft | 450 kts | 114° |
| 2026-04-21 01:27 | 47.58023 | -23.61928 | 36871 ft | 446 kts | 114° |
| 2026-04-21 01:27 | 47.55406 | -23.53565 | 36933 ft | 450 kts | 114° |
| 2026-04-21 01:28 | 47.52793 | -23.45243 | 36898 ft | 445 kts | 115° |
| 2026-04-21 01:28 | 47.50185 | -23.36966 | 36934 ft | 447 kts | 115° |
| 2026-04-21 01:29 | 47.47575 | -23.28710 | 36916 ft | 446 kts | 115° |
| 2026-04-21 01:29 | 47.44938 | -23.20394 | 36907 ft | 448 kts | 115° |
| 2026-04-21 01:30 | 47.42321 | -23.12167 | 36879 ft | 446 kts | 115° |
| 2026-04-21 01:30 | 47.39671 | -23.03864 | 36894 ft | 447 kts | 115° |
| 2026-04-21 01:31 | 47.37039 | -22.95644 | 36897 ft | 446 kts | 116° |
| 2026-04-21 01:31 | 47.34395 | -22.87413 | 36881 ft | 444 kts | 116° |
| 2026-04-21 01:32 | 47.31753 | -22.79222 | 36871 ft | 447 kts | 116° |
| 2026-04-21 01:32 | 47.29082 | -22.70958 | 36899 ft | 446 kts | 116° |
| 2026-04-21 01:33 | 47.26426 | -22.62771 | 36927 ft | 446 kts | 116° |
| 2026-04-21 01:33 | 47.23758 | -22.54572 | 36918 ft | 444 kts | 116° |
| 2026-04-21 01:34 | 47.21092 | -22.46403 | 36889 ft | 443 kts | 116° |
| 2026-04-21 01:34 | 47.18415 | -22.38229 | 36952 ft | 445 kts | 117° |
| 2026-04-21 01:35 | 47.17081 | -22.34165 | 36851 ft | 443 kts | 117° |
| 2026-04-21 01:35 | 47.15745 | -22.30105 | 36910 ft | 444 kts | 117° |
| 2026-04-21 01:35 | 47.13052 | -22.21935 | 36917 ft | 445 kts | 117° |
| 2026-04-21 01:36 | 47.10363 | -22.13794 | 36908 ft | 442 kts | 118° |
| 2026-04-21 01:36 | 47.07672 | -22.05686 | 36915 ft | 444 kts | 118° |
| 2026-04-21 01:37 | 47.04979 | -21.97588 | 36933 ft | 442 kts | 117° |
| 2026-04-21 01:37 | 47.02296 | -21.89551 | 36888 ft | 439 kts | 117° |
| 2026-04-21 01:38 | 46.99607 | -21.81521 | 36935 ft | 443 kts | 118° |
| 2026-04-21 01:38 | 46.96892 | -21.73435 | 36873 ft | 442 kts | 118° |
| 2026-04-21 01:39 | 46.95529 | -21.69388 | 36984 ft | 442 kts | 118° |
| 2026-04-21 01:39 | 46.94191 | -21.65419 | 36863 ft | 440 kts | 118° |
| 2026-04-21 01:39 | 46.91478 | -21.57387 | 36914 ft | 442 kts | 118° |
| 2026-04-21 01:40 | 46.88759 | -21.49365 | 36918 ft | 439 kts | 118° |
| 2026-04-21 01:40 | 46.86063 | -21.41437 | 36975 ft | 441 kts | 118° |
| 2026-04-21 01:41 | 46.83347 | -21.33473 | 36897 ft | 434 kts | 119° |
| 2026-04-21 01:41 | 46.80646 | -21.25576 | 36936 ft | 439 kts | 118° |
| 2026-04-21 01:42 | 46.77913 | -21.17610 | 36917 ft | 435 kts | 119° |
| 2026-04-21 01:42 | 46.75232 | -21.09817 | 36923 ft | 433 kts | 119° |
| 2026-04-21 01:43 | 46.72496 | -21.01894 | 36965 ft | 438 kts | 119° |
| 2026-04-21 01:43 | 46.69796 | -20.94091 | 36897 ft | 430 kts | 119° |
| 2026-04-21 01:44 | 46.67079 | -20.86269 | 36929 ft | 435 kts | 120° |
| 2026-04-21 01:44 | 46.64380 | -20.78517 | 36887 ft | 429 kts | 119° |
| 2026-04-21 01:45 | 46.61663 | -20.70741 | 36901 ft | 434 kts | 119° |
| 2026-04-21 01:45 | 46.58927 | -20.62926 | 36916 ft | 435 kts | 120° |
| 2026-04-21 01:46 | 46.56197 | -20.55156 | 36904 ft | 433 kts | 120° |
| 2026-04-21 01:46 | 46.53440 | -20.47331 | 36868 ft | 437 kts | 120° |
| 2026-04-21 01:47 | 46.50682 | -20.39526 | 36869 ft | 433 kts | 120° |
| 2026-04-21 01:47 | 46.47935 | -20.31782 | 36899 ft | 434 kts | 121° |
| 2026-04-21 01:48 | 46.45162 | -20.23980 | 36933 ft | 435 kts | 121° |
| 2026-04-21 01:48 | 46.42405 | -20.16246 | 36884 ft | 433 kts | 121° |
| 2026-04-21 01:49 | 46.39624 | -20.08466 | 36917 ft | 435 kts | 121° |
| 2026-04-21 01:49 | 46.36839 | -20.00700 | 36868 ft | 434 kts | 121° |
| 2026-04-21 01:50 | 46.34066 | -19.92989 | 36894 ft | 436 kts | 121° |
| 2026-04-21 01:50 | 46.31273 | -19.85243 | 36821 ft | 432 kts | 121° |
| 2026-04-21 01:51 | 46.28490 | -19.77554 | 36873 ft | 433 kts | 122° |
| 2026-04-21 01:51 | 46.25706 | -19.69882 | 36915 ft | 435 kts | 121° |
| 2026-04-21 01:52 | 46.21504 | -19.58333 | 36850 ft | 431 kts | 122° |
| 2026-04-21 01:53 | 46.18731 | -19.50746 | 36887 ft | 432 kts | 122° |
| 2026-04-21 01:53 | 46.15919 | -19.43073 | 36888 ft | 434 kts | 122° |
| 2026-04-21 01:54 | 46.13103 | -19.35406 | 36882 ft | 431 kts | 122° |
| 2026-04-21 01:54 | 46.10304 | -19.27812 | 36908 ft | 430 kts | 122° |
| 2026-04-21 01:55 | 46.07511 | -19.20248 | 36903 ft | 430 kts | 123° |
| 2026-04-21 01:55 | 46.04713 | -19.12701 | 36828 ft | 428 kts | 122° |
| 2026-04-21 01:56 | 46.01908 | -19.05153 | 36880 ft | 431 kts | 122° |
| 2026-04-21 01:56 | 45.99094 | -18.97603 | 36898 ft | 428 kts | 123° |
| 2026-04-21 01:57 | 45.96272 | -18.90065 | 36857 ft | 428 kts | 123° |
| 2026-04-21 01:57 | 45.93456 | -18.82562 | 36867 ft | 430 kts | 123° |
| 2026-04-21 01:58 | 45.90615 | -18.75016 | 36823 ft | 430 kts | 123° |
| 2026-04-21 01:58 | 45.87796 | -18.67544 | 36891 ft | 429 kts | 123° |
| 2026-04-21 01:59 | 45.84953 | -18.60033 | 36868 ft | 428 kts | 123° |
| 2026-04-21 01:59 | 45.82180 | -18.52725 | 36856 ft | 432 kts | 123° |
| 2026-04-21 02:00 | 45.79325 | -18.45221 | 36837 ft | 427 kts | 123° |
| 2026-04-21 02:00 | 45.76475 | -18.37753 | 36889 ft | 429 kts | 123° |
| 2026-04-21 02:01 | 45.73619 | -18.30288 | 36890 ft | 428 kts | 124° |
| 2026-04-21 02:01 | 45.70755 | -18.22822 | 36898 ft | 429 kts | 124° |
| 2026-04-21 02:02 | 45.67883 | -18.15354 | 36828 ft | 427 kts | 124° |
| 2026-04-21 02:02 | 45.65036 | -18.07976 | 36857 ft | 429 kts | 124° |
| 2026-04-21 02:02 | 45.63585 | -18.04221 | 36960 ft | 431 kts | 124° |
| 2026-04-21 02:03 | 45.62123 | -18.00445 | 36889 ft | 431 kts | 124° |
| 2026-04-21 02:03 | 45.59270 | -17.93082 | 36841 ft | 425 kts | 124° |
| 2026-04-21 02:04 | 45.56382 | -17.85663 | 36875 ft | 429 kts | 124° |
| 2026-04-21 02:04 | 45.53495 | -17.78255 | 36838 ft | 431 kts | 124° |
| 2026-04-21 02:05 | 45.50576 | -17.70788 | 36892 ft | 429 kts | 124° |
| 2026-04-21 02:05 | 45.47683 | -17.63412 | 36853 ft | 430 kts | 124° |
| 2026-04-21 02:06 | 45.44770 | -17.55998 | 36871 ft | 429 kts | 124° |
| 2026-04-21 02:06 | 45.41848 | -17.48589 | 36853 ft | 434 kts | 124° |
| 2026-04-21 02:07 | 45.38900 | -17.41124 | 36884 ft | 432 kts | 124° |
| 2026-04-21 02:07 | 45.35966 | -17.33718 | 36858 ft | 431 kts | 125° |
| 2026-04-21 02:08 | 45.33026 | -17.26319 | 36849 ft | 431 kts | 125° |
| 2026-04-21 02:08 | 45.30075 | -17.18910 | 36869 ft | 432 kts | 125° |
| 2026-04-21 02:09 | 45.27111 | -17.11491 | 36875 ft | 430 kts | 125° |
| 2026-04-21 02:09 | 45.24169 | -17.04143 | 36879 ft | 430 kts | 125° |
| 2026-04-21 02:10 | 45.21205 | -16.96766 | 36849 ft | 431 kts | 125° |
| 2026-04-21 02:10 | 45.18231 | -16.89376 | 36849 ft | 434 kts | 125° |
| 2026-04-21 02:11 | 45.15248 | -16.81987 | 36859 ft | 432 kts | 125° |
| 2026-04-21 02:11 | 45.12279 | -16.74650 | 36863 ft | 433 kts | 125° |
| 2026-04-21 02:12 | 45.09271 | -16.67238 | 36853 ft | 432 kts | 125° |
| 2026-04-21 02:12 | 45.06355 | -16.60070 | 36850 ft | 434 kts | 126° |
| 2026-04-21 02:13 | 45.03346 | -16.52694 | 36854 ft | 432 kts | 125° |
| 2026-04-21 02:13 | 45.00352 | -16.45373 | 36615 ft | 431 kts | 125° |
| 2026-04-21 02:13 | 44.98867 | -16.41746 | 36866 ft | 428 kts | 125° |
| 2026-04-21 02:14 | 44.97375 | -16.38114 | 36823 ft | 431 kts | 125° |
| 2026-04-21 02:14 | 44.95850 | -16.34404 | 36967 ft | 436 kts | 126° |
| 2026-04-21 02:14 | 44.94343 | -16.30738 | 36842 ft | 432 kts | 126° |
| 2026-04-21 02:15 | 44.91380 | -16.23544 | 36835 ft | 424 kts | 126° |
| 2026-04-21 02:15 | 44.88551 | -16.16706 | 36869 ft | 431 kts | 126° |
| 2026-04-21 02:16 | 44.85643 | -16.09686 | 36854 ft | 434 kts | 126° |
| 2026-04-21 02:16 | 44.82598 | -16.02353 | 36835 ft | 436 kts | 126° |
| 2026-04-21 02:17 | 44.79546 | -15.95019 | 36858 ft | 435 kts | 126° |
| 2026-04-21 02:17 | 44.76482 | -15.87678 | 36833 ft | 435 kts | 126° |
| 2026-04-21 02:18 | 44.73396 | -15.80306 | 36874 ft | 438 kts | 126° |
| 2026-04-21 02:18 | 44.70323 | -15.72982 | 36806 ft | 435 kts | 126° |
| 2026-04-21 02:19 | 44.67260 | -15.65700 | 36838 ft | 435 kts | 126° |
| 2026-04-21 02:19 | 44.64170 | -15.58376 | 36861 ft | 436 kts | 126° |
| 2026-04-21 02:20 | 44.61104 | -15.51125 | 36838 ft | 433 kts | 126° |
| 2026-04-21 02:20 | 44.58003 | -15.43811 | 36849 ft | 438 kts | 127° |
| 2026-04-21 02:21 | 44.54903 | -15.36515 | 36876 ft | 434 kts | 127° |
| 2026-04-21 02:21 | 44.51814 | -15.29270 | 36764 ft | 437 kts | 127° |
| 2026-04-21 02:22 | 44.48724 | -15.22033 | 36832 ft | 432 kts | 127° |
| 2026-04-21 02:22 | 44.45626 | -15.14804 | 36831 ft | 437 kts | 127° |
| 2026-04-21 02:23 | 44.42515 | -15.07557 | 36835 ft | 434 kts | 127° |
| 2026-04-21 02:23 | 44.39423 | -15.00373 | 36835 ft | 433 kts | 127° |
| 2026-04-21 02:24 | 44.36307 | -14.93155 | 36865 ft | 437 kts | 127° |
| 2026-04-21 02:24 | 44.33163 | -14.85888 | 36788 ft | 437 kts | 127° |
| 2026-04-21 02:25 | 44.30031 | -14.78665 | 36827 ft | 435 kts | 127° |
| 2026-04-21 02:25 | 44.26875 | -14.71412 | 36820 ft | 440 kts | 127° |
| 2026-04-21 02:26 | 44.23706 | -14.64140 | 36811 ft | 439 kts | 127° |
| 2026-04-21 02:26 | 44.20554 | -14.56928 | 36835 ft | 440 kts | 127° |
| 2026-04-21 02:27 | 44.17356 | -14.49632 | 36842 ft | 442 kts | 127° |
| 2026-04-21 02:27 | 44.14177 | -14.42388 | 36816 ft | 438 kts | 127° |
| 2026-04-21 02:28 | 44.10984 | -14.35144 | 36852 ft | 440 kts | 127° |
| 2026-04-21 02:28 | 44.07784 | -14.27892 | 36819 ft | 442 kts | 127° |
| 2026-04-21 02:28 | 44.06195 | -14.24293 | 36815 ft | 430 kts | 128° |
| 2026-04-21 02:29 | 44.04644 | -14.20785 | 36838 ft | 425 kts | 128° |
| 2026-04-21 02:29 | 44.01512 | -14.13737 | 36821 ft | 433 kts | 128° |
| 2026-04-21 02:30 | 43.98324 | -14.06574 | 36859 ft | 440 kts | 127° |
| 2026-04-21 02:30 | 43.95103 | -13.99348 | 36823 ft | 442 kts | 127° |
| 2026-04-21 02:31 | 43.91871 | -13.92116 | 36821 ft | 443 kts | 128° |
| 2026-04-21 02:31 | 43.88634 | -13.84894 | 36844 ft | 445 kts | 127° |
| 2026-04-21 02:32 | 43.85359 | -13.77601 | 36857 ft | 443 kts | 127° |
| 2026-04-21 02:32 | 43.82116 | -13.70400 | 36850 ft | 444 kts | 127° |
| 2026-04-21 02:33 | 43.78841 | -13.63144 | 36846 ft | 444 kts | 128° |
| 2026-04-21 02:33 | 43.75576 | -13.55933 | 36847 ft | 445 kts | 127° |
| 2026-04-21 02:34 | 43.72294 | -13.48699 | 36834 ft | 447 kts | 127° |
| 2026-04-21 02:34 | 43.69007 | -13.41471 | 36838 ft | 445 kts | 127° |
| 2026-04-21 02:35 | 43.65703 | -13.34224 | 36842 ft | 446 kts | 128° |
| 2026-04-21 02:35 | 43.62422 | -13.27047 | 36850 ft | 445 kts | 128° |
| 2026-04-21 02:36 | 43.59110 | -13.19819 | 36844 ft | 446 kts | 128° |
| 2026-04-21 02:36 | 43.55798 | -13.12610 | 36838 ft | 445 kts | 128° |
| 2026-04-21 02:37 | 43.52497 | -13.05442 | 36841 ft | 446 kts | 128° |
| 2026-04-21 02:37 | 43.49132 | -12.98291 | 36837 ft | 444 kts | 132° |
| 2026-04-21 02:38 | 43.45438 | -12.91503 | 36830 ft | 443 kts | 132° |
| 2026-04-21 02:38 | 43.41784 | -12.84752 | 36841 ft | 441 kts | 131° |
| 2026-04-21 02:39 | 43.38122 | -12.77984 | 36825 ft | 444 kts | 131° |
| 2026-04-21 02:39 | 43.34454 | -12.71213 | 36812 ft | 444 kts | 131° |
| 2026-04-21 02:40 | 43.30762 | -12.64415 | 36832 ft | 445 kts | 132° |
| 2026-04-21 02:40 | 43.27053 | -12.57597 | 36814 ft | 445 kts | 131° |
| 2026-04-21 02:41 | 43.23367 | -12.50840 | 36828 ft | 447 kts | 131° |
| 2026-04-21 02:41 | 43.19652 | -12.44042 | 36837 ft | 445 kts | 131° |
| 2026-04-21 02:42 | 43.15935 | -12.37258 | 36818 ft | 447 kts | 131° |
| 2026-04-21 02:42 | 43.12195 | -12.30448 | 36809 ft | 447 kts | 132° |
| 2026-04-21 02:43 | 43.08461 | -12.23663 | 36806 ft | 449 kts | 132° |
| 2026-04-21 02:43 | 43.04725 | -12.16891 | 36788 ft | 449 kts | 133° |
| 2026-04-21 02:44 | 43.00961 | -12.10081 | 36783 ft | 448 kts | 132° |
| 2026-04-21 02:44 | 42.97216 | -12.03324 | 36793 ft | 447 kts | 132° |
| 2026-04-21 02:45 | 42.93462 | -11.96567 | 36805 ft | 451 kts | 132° |
| 2026-04-21 02:45 | 42.89682 | -11.89776 | 36794 ft | 450 kts | 132° |
| 2026-04-21 02:46 | 42.85918 | -11.83031 | 36818 ft | 451 kts | 132° |
| 2026-04-21 02:46 | 42.82123 | -11.76245 | 36823 ft | 451 kts | 132° |
| 2026-04-21 02:47 | 42.78336 | -11.69487 | 36839 ft | 450 kts | 132° |
| 2026-04-21 02:47 | 42.74535 | -11.62722 | 36819 ft | 451 kts | 132° |
| 2026-04-21 02:48 | 42.70729 | -11.55964 | 36814 ft | 452 kts | 132° |
| 2026-04-21 02:48 | 42.66911 | -11.49197 | 36812 ft | 451 kts | 132° |
| 2026-04-21 02:49 | 42.63097 | -11.42454 | 36820 ft | 452 kts | 133° |
| 2026-04-21 02:49 | 42.59275 | -11.35714 | 36821 ft | 452 kts | 132° |
| 2026-04-21 02:50 | 42.55447 | -11.28976 | 36825 ft | 452 kts | 133° |
| 2026-04-21 02:50 | 42.51597 | -11.22215 | 36818 ft | 453 kts | 133° |
| 2026-04-21 02:51 | 42.47774 | -11.15518 | 36830 ft | 453 kts | 133° |
| 2026-04-21 02:51 | 42.43910 | -11.08763 | 36825 ft | 454 kts | 133° |
| 2026-04-21 02:52 | 42.40059 | -11.02046 | 36815 ft | 453 kts | 133° |
| 2026-04-21 02:52 | 42.36196 | -10.95326 | 36816 ft | 454 kts | 133° |
| 2026-04-21 02:53 | 42.32321 | -10.88597 | 36785 ft | 454 kts | 133° |
| 2026-04-21 02:53 | 42.28467 | -10.81914 | 36811 ft | 454 kts | 132° |
| 2026-04-21 02:54 | 42.24764 | -10.75018 | 36810 ft | 456 kts | 131° |
| 2026-04-21 02:54 | 42.21061 | -10.68090 | 36805 ft | 455 kts | 131° |
| 2026-04-21 02:55 | 42.17362 | -10.61192 | 36822 ft | 456 kts | 131° |
| 2026-04-21 02:55 | 42.13669 | -10.54318 | 36810 ft | 454 kts | 131° |
| 2026-04-21 02:56 | 42.09961 | -10.47437 | 36815 ft | 457 kts | 131° |
| 2026-04-21 02:56 | 42.04368 | -10.37084 | 36815 ft | 456 kts | 131° |
| 2026-04-21 02:57 | 42.00653 | -10.30228 | 36802 ft | 456 kts | 131° |
| 2026-04-21 02:57 | 41.96933 | -10.23374 | 36823 ft | 454 kts | 131° |
| 2026-04-21 02:58 | 41.93263 | -10.16632 | 36806 ft | 454 kts | 131° |
| 2026-04-21 02:58 | 41.89526 | -10.09781 | 36810 ft | 455 kts | 131° |
| 2026-04-21 02:59 | 41.85775 | -10.02921 | 36823 ft | 456 kts | 131° |
| 2026-04-21 02:59 | 41.82023 | -9.96075 | 36824 ft | 457 kts | 131° |
| 2026-04-21 03:00 | 41.78286 | -9.89269 | 36816 ft | 455 kts | 131° |
| 2026-04-21 03:00 | 41.74518 | -9.82423 | 36819 ft | 456 kts | 131° |
| 2026-04-21 03:01 | 41.70740 | -9.75576 | 36835 ft | 460 kts | 131° |
| 2026-04-21 03:01 | 41.66976 | -9.68766 | 36799 ft | 456 kts | 131° |
| 2026-04-21 03:02 | 41.63164 | -9.61890 | 36863 ft | 461 kts | 131° |
| 2026-04-21 03:02 | 41.59379 | -9.55072 | 36837 ft | 458 kts | 131° |
| 2026-04-21 03:03 | 41.55576 | -9.48241 | 36810 ft | 459 kts | 131° |
| 2026-04-21 03:03 | 41.51734 | -9.41355 | 36831 ft | 462 kts | 131° |
| 2026-04-21 03:04 | 41.47903 | -9.34502 | 36839 ft | 462 kts | 131° |
| 2026-04-21 03:04 | 41.44054 | -9.27632 | 36831 ft | 461 kts | 131° |
| 2026-04-21 03:05 | 41.40258 | -9.20876 | 36833 ft | 463 kts | 131° |
| 2026-04-21 03:05 | 41.36396 | -9.14016 | 36834 ft | 464 kts | 131° |
| 2026-04-21 03:06 | 41.32506 | -9.07121 | 36837 ft | 465 kts | 131° |
| 2026-04-21 03:06 | 41.28640 | -9.00281 | 36843 ft | 463 kts | 131° |
| 2026-04-21 03:07 | 41.24773 | -8.93458 | 36880 ft | 463 kts | 131° |
| 2026-04-21 03:07 | 41.20861 | -8.86571 | 36883 ft | 466 kts | 131° |
| 2026-04-21 03:08 | 41.16978 | -8.79750 | 36884 ft | 463 kts | 131° |
| 2026-04-21 03:08 | 41.13099 | -8.72951 | 36888 ft | 465 kts | 131° |
| 2026-04-21 03:09 | 41.09186 | -8.66106 | 36872 ft | 464 kts | 131° |
| 2026-04-21 03:09 | 41.05419 | -8.59163 | 36884 ft | 467 kts | 128° |
| 2026-04-21 03:10 | 41.01693 | -8.52056 | 36877 ft | 467 kts | 128° |
| 2026-04-21 03:10 | 40.97980 | -8.44996 | 36881 ft | 468 kts | 128° |
| 2026-04-21 03:11 | 40.94289 | -8.37996 | 36892 ft | 467 kts | 128° |
| 2026-04-21 03:11 | 40.90545 | -8.30914 | 36866 ft | 467 kts | 129° |
| 2026-04-21 03:12 | 40.86803 | -8.23854 | 36886 ft | 468 kts | 129° |
| 2026-04-21 03:12 | 40.83157 | -8.16989 | 36886 ft | 467 kts | 129° |
| 2026-04-21 03:13 | 40.79548 | -8.10210 | 36892 ft | 469 kts | 128° |
| 2026-04-21 03:13 | 40.75796 | -8.03175 | 36891 ft | 468 kts | 129° |
| 2026-04-21 03:14 | 40.72058 | -7.96185 | 36886 ft | 467 kts | 129° |
| 2026-04-21 03:14 | 40.68300 | -7.89172 | 36901 ft | 469 kts | 128° |
| 2026-04-21 03:15 | 40.64533 | -7.82158 | 36891 ft | 468 kts | 128° |
| 2026-04-21 03:15 | 40.60736 | -7.75105 | 36901 ft | 470 kts | 128° |
| 2026-04-21 03:16 | 40.56977 | -7.68137 | 36910 ft | 469 kts | 128° |
| 2026-04-21 03:16 | 40.53183 | -7.61121 | 36927 ft | 469 kts | 128° |
| 2026-04-21 03:17 | 40.49403 | -7.54145 | 36947 ft | 469 kts | 128° |
| 2026-04-21 03:17 | 40.45592 | -7.47129 | 36952 ft | 470 kts | 128° |
| 2026-04-21 03:18 | 40.41807 | -7.40176 | 36944 ft | 469 kts | 128° |
| 2026-04-21 03:18 | 40.37994 | -7.33188 | 36931 ft | 470 kts | 129° |
| 2026-04-21 03:19 | 40.34180 | -7.26212 | 36919 ft | 469 kts | 129° |
| 2026-04-21 03:19 | 40.30389 | -7.19296 | 36902 ft | 470 kts | 129° |
| 2026-04-21 03:20 | 40.26561 | -7.12325 | 36895 ft | 470 kts | 129° |
| 2026-04-21 03:20 | 40.22745 | -7.05394 | 36928 ft | 470 kts | 129° |
| 2026-04-21 03:21 | 40.18935 | -6.98488 | 36918 ft | 470 kts | 129° |
| 2026-04-21 03:21 | 40.17018 | -6.95021 | 37169 ft | 472 kts | 129° |
| 2026-04-21 03:21 | 40.15081 | -6.91519 | 37018 ft | 470 kts | 128° |
| 2026-04-21 03:22 | 40.13197 | -6.88116 | 36905 ft | 467 kts | 129° |
| 2026-04-21 03:22 | 40.11276 | -6.84651 | 36585 ft | 468 kts | 129° |
| 2026-04-21 03:22 | 40.09380 | -6.81233 | 37304 ft | 462 kts | 129° |
| 2026-04-21 03:22 | 40.07473 | -6.77802 | 36792 ft | 470 kts | 128° |
| 2026-04-21 03:23 | 40.05583 | -6.74399 | 37037 ft | 463 kts | 129° |
| 2026-04-21 03:23 | 40.03678 | -6.70986 | 36820 ft | 462 kts | 129° |
| 2026-04-21 03:23 | 40.01815 | -6.67638 | 36925 ft | 459 kts | 129° |
| 2026-04-21 03:23 | 39.99918 | -6.64243 | 36870 ft | 464 kts | 128° |
| 2026-04-21 03:24 | 39.96108 | -6.57426 | 36885 ft | 470 kts | 128° |
| 2026-04-21 03:24 | 39.92244 | -6.50528 | 36890 ft | 471 kts | 128° |
| 2026-04-21 03:25 | 39.88369 | -6.43626 | 36902 ft | 471 kts | 128° |
| 2026-04-21 03:25 | 39.84685 | -6.36799 | 36899 ft | 473 kts | 124° |
| 2026-04-21 03:26 | 39.81425 | -6.30064 | 36882 ft | 473 kts | 125° |
| 2026-04-21 03:27 | 39.77896 | -6.22835 | 36893 ft | 472 kts | 125° |
| 2026-04-21 03:27 | 39.74424 | -6.15745 | 36894 ft | 473 kts | 125° |
| 2026-04-21 03:28 | 39.70882 | -6.08533 | 36904 ft | 473 kts | 125° |
| 2026-04-21 03:28 | 39.67335 | -6.01330 | 36894 ft | 473 kts | 125° |
| 2026-04-21 03:29 | 39.63810 | -5.94186 | 36922 ft | 474 kts | 125° |
| 2026-04-21 03:29 | 39.60240 | -5.86973 | 36921 ft | 476 kts | 125° |
| 2026-04-21 03:30 | 39.56673 | -5.79775 | 36926 ft | 474 kts | 125° |
| 2026-04-21 03:30 | 39.53120 | -5.72625 | 36926 ft | 474 kts | 125° |
| 2026-04-21 03:31 | 39.49529 | -5.65414 | 36956 ft | 476 kts | 125° |
| 2026-04-21 03:31 | 39.45950 | -5.58242 | 36944 ft | 474 kts | 125° |
| 2026-04-21 03:32 | 39.42374 | -5.51093 | 36917 ft | 475 kts | 125° |
| 2026-04-21 03:32 | 39.38774 | -5.43914 | 36923 ft | 476 kts | 125° |
| 2026-04-21 03:33 | 39.35160 | -5.36723 | 36948 ft | 475 kts | 125° |
| 2026-04-21 03:33 | 39.31567 | -5.29589 | 36937 ft | 477 kts | 126° |
| 2026-04-21 03:34 | 39.28119 | -5.22756 | 36943 ft | 473 kts | 126° |
| 2026-04-21 03:34 | 39.24606 | -5.15812 | 36936 ft | 477 kts | 126° |
| 2026-04-21 03:35 | 39.20945 | -5.08592 | 36945 ft | 477 kts | 126° |
| 2026-04-21 03:35 | 39.17535 | -5.01882 | 36915 ft | 477 kts | 126° |
| 2026-04-21 03:36 | 39.13914 | -4.94769 | 36926 ft | 477 kts | 126° |
| 2026-04-21 03:36 | 39.10273 | -4.87635 | 36939 ft | 476 kts | 126° |
| 2026-04-21 03:37 | 39.06643 | -4.80539 | 36952 ft | 477 kts | 126° |
| 2026-04-21 03:37 | 39.02987 | -4.73405 | 36949 ft | 476 kts | 125° |
| 2026-04-21 03:38 | 38.99338 | -4.66303 | 36958 ft | 477 kts | 126° |
| 2026-04-21 03:38 | 38.95705 | -4.59248 | 36956 ft | 476 kts | 126° |
| 2026-04-21 03:39 | 38.91328 | -4.52933 | 36966 ft | 471 kts | 139° |
| 2026-04-21 03:39 | 38.86489 | -4.47223 | 36956 ft | 472 kts | 140° |
| 2026-04-21 03:40 | 38.81679 | -4.41628 | 36958 ft | 472 kts | 140° |
| 2026-04-21 03:40 | 38.76937 | -4.36151 | 36959 ft | 472 kts | 140° |
| 2026-04-21 03:41 | 38.72035 | -4.30514 | 36964 ft | 472 kts | 140° |
| 2026-04-21 03:41 | 38.67223 | -4.24994 | 36969 ft | 472 kts | 140° |
| 2026-04-21 03:42 | 38.62357 | -4.19424 | 36967 ft | 472 kts | 140° |
| 2026-04-21 03:42 | 38.57457 | -4.13827 | 36971 ft | 472 kts | 140° |
| 2026-04-21 03:43 | 38.52554 | -4.08238 | 36968 ft | 472 kts | 140° |
| 2026-04-21 03:43 | 38.47641 | -4.02647 | 36978 ft | 473 kts | 140° |
| 2026-04-21 03:44 | 38.42733 | -3.97074 | 36976 ft | 473 kts | 140° |
| 2026-04-21 03:44 | 38.37824 | -3.91509 | 36980 ft | 473 kts | 140° |
| 2026-04-21 03:45 | 38.32913 | -3.85953 | 36979 ft | 474 kts | 140° |
| 2026-04-21 03:45 | 38.27994 | -3.80399 | 36972 ft | 473 kts | 140° |
| 2026-04-21 03:46 | 38.25536 | -3.77628 | 36580 ft | 479 kts | 140° |
| 2026-04-21 03:46 | 38.23046 | -3.74823 | 35858 ft | 474 kts | 140° |
| 2026-04-21 03:46 | 38.20605 | -3.72074 | 35144 ft | 467 kts | 140° |
| 2026-04-21 03:46 | 38.18193 | -3.69361 | 34425 ft | 463 kts | 140° |
| 2026-04-21 03:47 | 38.15778 | -3.66648 | 33759 ft | 466 kts | 140° |
| 2026-04-21 03:47 | 38.13333 | -3.63905 | 33080 ft | 472 kts | 140° |
| 2026-04-21 03:47 | 38.10863 | -3.61136 | 32396 ft | 475 kts | 140° |
| 2026-04-21 03:47 | 38.08392 | -3.58367 | 31719 ft | 476 kts | 140° |
| 2026-04-21 03:48 | 38.05874 | -3.55549 | 31035 ft | 476 kts | 140° |
| 2026-04-21 03:48 | 38.03388 | -3.52764 | 30372 ft | 477 kts | 140° |
| 2026-04-21 03:48 | 38.00909 | -3.50005 | 29731 ft | 481 kts | 140° |
| 2026-04-21 03:48 | 37.98389 | -3.47188 | 29060 ft | 481 kts | 140° |
| 2026-04-21 03:49 | 37.95895 | -3.44407 | 28433 ft | 477 kts | 140° |
| 2026-04-21 03:49 | 37.93430 | -3.41661 | 27834 ft | 471 kts | 140° |
| 2026-04-21 03:49 | 37.90982 | -3.38934 | 27243 ft | 464 kts | 140° |
| 2026-04-21 03:49 | 37.88583 | -3.36266 | 26667 ft | 459 kts | 140° |
| 2026-04-21 03:50 | 37.86166 | -3.33583 | 26105 ft | 456 kts | 141° |
| 2026-04-21 03:50 | 37.83775 | -3.30928 | 25551 ft | 453 kts | 141° |
| 2026-04-21 03:50 | 37.81410 | -3.28303 | 24988 ft | 449 kts | 141° |
| 2026-04-21 03:50 | 37.79066 | -3.25707 | 24427 ft | 446 kts | 141° |
| 2026-04-21 03:51 | 37.76696 | -3.23084 | 23863 ft | 442 kts | 141° |
| 2026-04-21 03:51 | 37.74423 | -3.20569 | 23343 ft | 438 kts | 141° |
| 2026-04-21 03:51 | 37.72131 | -3.18036 | 22818 ft | 435 kts | 141° |
| 2026-04-21 03:51 | 37.69838 | -3.15504 | 22308 ft | 432 kts | 140° |
| 2026-04-21 03:52 | 37.67601 | -3.13037 | 21810 ft | 429 kts | 140° |
| 2026-04-21 03:52 | 37.65343 | -3.10547 | 21312 ft | 427 kts | 140° |
| 2026-04-21 03:52 | 37.63120 | -3.08098 | 20822 ft | 425 kts | 140° |
| 2026-04-21 03:52 | 37.60908 | -3.05664 | 20328 ft | 422 kts | 140° |
| 2026-04-21 03:53 | 37.58705 | -3.03241 | 19840 ft | 419 kts | 140° |
| 2026-04-21 03:53 | 37.56490 | -3.00887 | 19335 ft | 416 kts | 142° |
| 2026-04-21 03:53 | 37.54263 | -2.98586 | 18814 ft | 414 kts | 142° |
| 2026-04-21 03:53 | 37.52045 | -2.96293 | 18313 ft | 410 kts | 142° |
| 2026-04-21 03:54 | 37.49860 | -2.94033 | 17823 ft | 407 kts | 142° |
| 2026-04-21 03:54 | 37.47728 | -2.91831 | 17363 ft | 405 kts | 142° |
| 2026-04-21 03:54 | 37.45545 | -2.89576 | 16872 ft | 402 kts | 142° |
| 2026-04-21 03:54 | 37.43395 | -2.87358 | 16393 ft | 399 kts | 142° |
| 2026-04-21 03:55 | 37.41271 | -2.85166 | 15951 ft | 395 kts | 142° |
| 2026-04-21 03:55 | 37.39159 | -2.82972 | 15489 ft | 393 kts | 142° |
| 2026-04-21 03:55 | 37.37049 | -2.80784 | 15018 ft | 392 kts | 142° |
| 2026-04-21 03:55 | 37.34974 | -2.78632 | 14557 ft | 388 kts | 142° |
| 2026-04-21 03:56 | 37.32898 | -2.76482 | 14098 ft | 385 kts | 142° |
| 2026-04-21 03:56 | 37.30839 | -2.74349 | 13646 ft | 382 kts | 142° |
| 2026-04-21 03:56 | 37.28808 | -2.72248 | 13199 ft | 380 kts | 142° |
| 2026-04-21 03:56 | 37.26764 | -2.70136 | 12747 ft | 378 kts | 142° |
| 2026-04-21 03:57 | 37.24764 | -2.68071 | 12300 ft | 375 kts | 142° |
| 2026-04-21 03:57 | 37.22754 | -2.65996 | 11822 ft | 372 kts | 142° |
| 2026-04-21 03:57 | 37.20837 | -2.63814 | 11338 ft | 370 kts | 132° |
| 2026-04-21 03:57 | 37.19429 | -2.61161 | 10857 ft | 371 kts | 116° |
| 2026-04-21 03:58 | 37.18602 | -2.58107 | 10298 ft | 370 kts | 104° |
| 2026-04-21 03:58 | 37.17987 | -2.55027 | 10197 ft | 354 kts | 105° |
| 2026-04-21 03:58 | 37.17375 | -2.52140 | 10127 ft | 337 kts | 104° |
| 2026-04-21 03:58 | 37.16789 | -2.49349 | 10065 ft | 321 kts | 105° |
| 2026-04-21 03:59 | 37.16239 | -2.46726 | 9907 ft | 305 kts | 105° |
| 2026-04-21 03:59 | 37.15713 | -2.44220 | 9753 ft | 291 kts | 105° |
| 2026-04-21 03:59 | 37.15202 | -2.41786 | 9385 ft | 287 kts | 104° |
| 2026-04-21 04:00 | 37.14214 | -2.37079 | 8832 ft | 275 kts | 105° |
| 2026-04-21 04:00 | 37.13729 | -2.34771 | 8595 ft | 277 kts | 105° |
| 2026-04-21 04:00 | 37.13229 | -2.32397 | 8386 ft | 280 kts | 105° |
| 2026-04-21 04:00 | 37.12740 | -2.30078 | 8088 ft | 280 kts | 105° |
| 2026-04-21 04:01 | 37.12257 | -2.27785 | 8101 ft | 270 kts | 105° |
| 2026-04-21 04:01 | 37.11768 | -2.25470 | 8136 ft | 277 kts | 105° |
| 2026-04-21 04:01 | 37.11271 | -2.23122 | 8126 ft | 281 kts | 105° |
| 2026-04-21 04:01 | 37.10773 | -2.20771 | 8106 ft | 279 kts | 105° |
| 2026-04-21 04:02 | 37.10282 | -2.18449 | 8103 ft | 277 kts | 105° |
| 2026-04-21 04:02 | 37.09786 | -2.16113 | 8121 ft | 279 kts | 105° |
| 2026-04-21 04:02 | 37.09222 | -2.13770 | 8004 ft | 279 kts | 116° |
| 2026-04-21 04:02 | 37.08052 | -2.11861 | 7882 ft | 279 kts | 142° |
| 2026-04-21 04:03 | 37.06336 | -2.10828 | 7629 ft | 276 kts | 171° |
| 2026-04-21 04:03 | 37.04435 | -2.10897 | 7350 ft | 273 kts | 197° |
| 2026-04-21 04:03 | 37.02691 | -2.11790 | 7026 ft | 269 kts | 198° |
| 2026-04-21 04:03 | 37.00854 | -2.11987 | 6626 ft | 272 kts | 171° |
| 2026-04-21 04:04 | 36.99107 | -2.11073 | 6164 ft | 273 kts | 142° |
| 2026-04-21 04:04 | 36.97877 | -2.09323 | 5722 ft | 272 kts | 125° |
| 2026-04-21 04:04 | 36.96676 | -2.07460 | 5269 ft | 272 kts | 135° |
| 2026-04-21 04:04 | 36.95315 | -2.05912 | 5153 ft | 257 kts | 142° |
| 2026-04-21 04:05 | 36.93887 | -2.04616 | 4810 ft | 254 kts | 148° |
| 2026-04-21 04:05 | 36.92320 | -2.03667 | 4406 ft | 251 kts | 168° |
| 2026-04-21 04:05 | 36.90609 | -2.03719 | 4001 ft | 249 kts | 198° |
| 2026-04-21 04:05 | 36.89148 | -2.04864 | 3648 ft | 245 kts | 230° |
| 2026-04-21 04:06 | 36.88460 | -2.06694 | 3616 ft | 234 kts | 263° |
| 2026-04-21 04:06 | 36.88625 | -2.08783 | 3655 ft | 245 kts | 283° |
| 2026-04-21 04:06 | 36.89032 | -2.10865 | 3624 ft | 248 kts | 282° |
| 2026-04-21 04:06 | 36.89243 | -2.12932 | 3619 ft | 244 kts | 271° |
| 2026-04-21 04:07 | 36.89166 | -2.15068 | 3625 ft | 245 kts | 263° |
| 2026-04-21 04:07 | 36.88922 | -2.17143 | 3623 ft | 244 kts | 259° |
| 2026-04-21 04:07 | 36.88627 | -2.19223 | 3571 ft | 234 kts | 260° |
| 2026-04-21 04:07 | 36.88319 | -2.21120 | 3468 ft | 219 kts | 254° |
| 2026-04-21 04:08 | 36.87864 | -2.22894 | 3132 ft | 212 kts | 252° |
| 2026-04-21 04:08 | 36.87434 | -2.24599 | 2934 ft | 193 kts | 254° |
| 2026-04-21 04:08 | 36.87067 | -2.26189 | 2467 ft | 192 kts | 252° |
| 2026-04-21 04:08 | 36.86632 | -2.27748 | 1980 ft | 188 kts | 253° |
| 2026-04-21 04:09 | 36.86291 | -2.29267 | 1543 ft | 174 kts | 255° |
| 2026-04-21 04:09 | 36.85928 | -2.30607 | 1108 ft | 161 kts | 250° |
| 2026-04-21 04:09 | 36.85607 | -2.31894 | 753 ft | 156 kts | 256° |
| 2026-04-21 04:09 | 36.85318 | -2.33201 | 504 ft | 153 kts | 255° |
| 2026-04-21 04:10 | 36.85017 | -2.34452 | 254 ft | 146 kts | 253° |
| 2026-04-21 04:10 | 36.84726 | -2.35634 | 71 ft | 135 kts | 253° |
| 2026-04-21 04:10 | 36.84512 | -2.36519 | 47 ft | 69 kts | 254° |
| 2026-04-21 04:10 | 36.84424 | -2.36885 | 43 ft | 34 kts | 254° |
| 2026-04-21 04:11 | 36.84379 | -2.37085 | 41 ft | 15 kts | 253° |
| 2026-04-21 04:11 | 36.84347 | -2.37209 | 39 ft | 21 kts | 252° |
| 2026-04-21 04:11 | 36.84298 | -2.37408 | 37 ft | 24 kts | 252° |
| 2026-04-21 04:11 | 36.84241 | -2.37632 | 35 ft | 27 kts | 253° |
| 2026-04-21 04:12 | 36.84198 | -2.37855 | 31 ft | 24 kts | 265° |
| 2026-04-21 04:12 | 36.84198 | -2.38009 | 31 ft | 12 kts | 282° |
| 2026-04-21 04:12 | 36.84211 | -2.38088 | 32 ft | 6 kts | 281° |
| 2026-04-21 04:12 | 36.84234 | -2.38176 | 34 ft | 8 kts | 314° |
| 2026-04-21 04:13 | 36.84283 | -2.38145 | 36 ft | 17 kts | 60° |
| 2026-04-21 04:13 | 36.84326 | -2.37991 | 39 ft | 14 kts | 71° |
| 2026-04-21 04:13 | 36.84351 | -2.37888 | 43 ft | 14 kts | 74° |
| 2026-04-21 04:13 | 36.84412 | -2.37830 | 46 ft | 7 kts | 2° |
| 2026-04-21 04:14 | 36.84475 | -2.37804 | 54 ft | 6 kts | 6° |
| 2026-04-21 04:14 | 36.84488 | -2.37804 | 56 ft | 0 kts | 0° |